Time;durP1;ratioP1;P1;durP2;ratioP2;P2;SDS_P1;SDS_P2;PMS_P1;PMS_P2;Temp;Humidity;BMP_temperature;BMP_pressure;BME280_temperature;BME280_humidity;BME280_pressure;Samples;Min_cycle;Max_cycle;Signal;HPM_P1;HPM_P2
2022/02/08 00:00:24;;;;;;;0.10;0.10;;;;;;;;;;4995918;28;20452;-86
2022/02/08 00:02:54;;;;;;;0.10;0.10;;;;;;;;;;4994456;28;20091;-86
2022/02/08 00:05:21;;;;;;;0.10;0.10;;;;;;;;;;4979266;28;20080;-86
2022/02/08 00:07:51;;;;;;;0.00;0.00;;;;;;;;;;4995204;28;20441;-85
2022/02/08 00:10:17;;;;;;;0.10;0.10;;;;;;;;;;4979299;28;20464;-86
2022/02/08 00:12:43;;;;;;;0.10;0.10;;;;;;;;;;4978238;28;20115;-86
2022/02/08 00:15:09;;;;;;;0.10;0.10;;;;;;;;;;4994492;28;20096;-86
2022/02/08 00:17:35;;;;;;;0.10;0.10;;;;;;;;;;4994650;28;20099;-86
2022/02/08 00:20:03;;;;;;;0.10;0.10;;;;;;;;;;5010738;28;20548;-86
2022/02/08 00:22:30;;;;;;;0.10;0.10;;;;;;;;;;5010702;28;20080;-85
2022/02/08 00:24:56;;;;;;;0.15;0.15;;;;;;;;;;4978505;28;20045;-86
2022/02/08 00:27:21;;;;;;;0.10;0.10;;;;;;;;;;4994384;28;20045;-86
2022/02/08 00:29:47;;;;;;;0.10;0.10;;;;;;;;;;5013107;28;20046;-86
2022/02/08 00:32:13;;;;;;;0.10;0.10;;;;;;;;;;5014518;28;20077;-85
2022/02/08 00:34:39;;;;;;;0.10;0.10;;;;;;;;;;5014737;28;20042;-85
2022/02/08 00:37:05;;;;;;;0.05;0.05;;;;;;;;;;4982242;28;20393;-85
2022/02/08 00:39:33;;;;;;;0.00;0.00;;;;;;;;;;5014527;28;20370;-85
2022/02/08 00:42:04;;;;;;;0.00;0.00;;;;;;;;;;4982190;28;20087;-85
2022/02/08 00:44:58;;;;;;;0.10;0.10;;;;;;;;;;4998991;28;20042;-85
2022/02/08 00:49:45;;;;;;;0.10;0.10;;;;;;;;;;4998549;28;20417;-85
2022/02/08 00:52:15;;;;;;;0.05;0.05;;;;;;;;;;4998322;28;20046;-85
2022/02/08 00:54:48;;;;;;;0.00;0.00;;;;;;;;;;4982219;28;20548;-85
2022/02/08 00:57:14;;;;;;;;;;;;;;;;;;4982213;28;20053;-86
2022/02/08 00:59:40;;;;;;;0.10;0.10;;;;;;;;;;5014216;28;19917;-86
2022/02/08 01:02:06;;;;;;;0.10;0.10;;;;;;;;;;4981900;28;20552;-85
2022/02/08 01:04:33;;;;;;;0.10;0.10;;;;;;;;;;4997797;28;20120;-85
2022/02/08 01:06:59;;;;;;;0.10;0.10;;;;;;;;;;4981575;28;20136;-85
2022/02/08 01:09:44;;;;;;;0.13;0.13;;;;;;;;;;4997782;28;20049;-85
2022/02/08 01:12:10;;;;;;;0.10;0.10;;;;;;;;;;5013826;28;20521;-85
2022/02/08 01:14:39;;;;;;;0.10;0.10;;;;;;;;;;5014222;28;20489;-85
2022/02/08 01:17:06;;;;;;;0.00;0.00;;;;;;;;;;4981909;28;20065;-84
2022/02/08 01:19:32;;;;;;;0.00;0.00;;;;;;;;;;4997672;28;20034;-85
2022/02/08 01:21:58;;;;;;;0.10;0.10;;;;;;;;;;4997736;28;20077;-86
2022/02/08 01:24:24;;;;;;;0.00;0.00;;;;;;;;;;5013956;28;20519;-86
2022/02/08 01:27:00;;;;;;;0.10;0.10;;;;;;;;;;4997612;28;20060;-85
2022/02/08 01:29:40;;;;;;;0.10;0.10;;;;;;;;;;4982388;28;20041;-85
2022/02/08 01:35:06;;;;;;;0.10;0.10;;;;;;;;;;4998527;28;20042;-85
2022/02/08 01:45:55;;;;;;;0.10;0.10;;;;;;;;;;4999828;28;20077;-85
2022/02/08 01:48:39;;;;;;;0.10;0.10;;;;;;;;;;5013060;28;20049;-85
2022/02/08 01:51:02;;;;;;;0.10;0.10;;;;;;;;;;5000202;28;20057;-84
2022/02/08 01:53:29;;;;;;;0.00;0.00;;;;;;;;;;4997133;28;20061;-86
2022/02/08 01:55:55;;;;;;;0.10;0.10;;;;;;;;;;4997191;28;20046;-86
2022/02/08 01:58:21;;;;;;;0.00;0.00;;;;;;;;;;5013096;28;20092;-86
2022/02/08 02:00:47;;;;;;;0.10;0.10;;;;;;;;;;4997011;28;20042;-86
2022/02/08 02:03:13;;;;;;;0.10;0.10;;;;;;;;;;5012672;28;20058;-86
2022/02/08 02:05:39;;;;;;;0.00;0.00;;;;;;;;;;4996679;28;20123;-86
2022/02/08 02:08:05;;;;;;;0.10;0.10;;;;;;;;;;5013108;28;20050;-85
2022/02/08 02:10:32;;;;;;;0.10;0.10;;;;;;;;;;4980709;28;20049;-85
2022/02/08 02:12:59;;;;;;;0.08;0.08;;;;;;;;;;4980568;28;20049;-87
2022/02/08 02:15:25;;;;;;;0.10;0.10;;;;;;;;;;4997079;28;20402;-85
2022/02/08 02:17:51;;;;;;;0.20;0.20;;;;;;;;;;4996583;28;20084;-86
2022/02/08 02:20:17;;;;;;;0.08;0.08;;;;;;;;;;5012787;28;20351;-86
2022/02/08 02:22:43;;;;;;;0.00;0.00;;;;;;;;;;5012655;28;20049;-86
2022/02/08 02:25:19;;;;;;;0.00;0.00;;;;;;;;;;4996475;28;20037;-86
2022/02/08 02:27:45;;;;;;;0.08;0.08;;;;;;;;;;4996293;28;20045;-86
2022/02/08 02:30:11;;;;;;;0.00;0.00;;;;;;;;;;5012528;28;20052;-86
2022/02/08 02:32:40;;;;;;;0.00;0.00;;;;;;;;;;4996155;28;20053;-85
2022/02/08 02:35:06;;;;;;;0.10;0.10;;;;;;;;;;4996241;28;20042;-86
2022/02/08 02:37:32;;;;;;;0.10;0.10;;;;;;;;;;4996228;28;20046;-86
2022/02/08 02:39:58;;;;;;;0.10;0.10;;;;;;;;;;4996267;28;20045;-85
2022/02/08 02:42:26;;;;;;;0.10;0.10;;;;;;;;;;4996206;28;20196;-85
2022/02/08 02:44:52;;;;;;;0.10;0.10;;;;;;;;;;5012028;28;20050;-85
2022/02/08 02:47:18;;;;;;;0.10;0.10;;;;;;;;;;4995802;28;20068;-86
2022/02/08 02:49:44;;;;;;;0.00;0.00;;;;;;;;;;4979874;28;20042;-85
2022/02/08 02:52:10;;;;;;;0.10;0.10;;;;;;;;;;4995153;28;20042;-85
2022/02/08 02:54:36;;;;;;;0.10;0.10;;;;;;;;;;5011977;28;20053;-85
2022/02/08 02:57:03;;;;;;;0.20;0.20;;;;;;;;;;4995569;28;20046;-84
2022/02/08 02:59:31;;;;;;;0.10;0.10;;;;;;;;;;4979631;28;20042;-85
2022/02/08 03:02:20;;;;;;;0.00;0.00;;;;;;;;;;4996003;28;20046;-85
2022/02/08 03:20:50;;;;;;;0.10;0.10;;;;;;;;;;5011690;28;20121;-85
2022/02/08 03:23:16;;;;;;;0.10;0.10;;;;;;;;;;5011439;28;20398;-85
2022/02/08 03:25:42;;;;;;;0.10;0.10;;;;;;;;;;5011447;28;20038;-85
2022/02/08 03:28:08;;;;;;;0.00;0.00;;;;;;;;;;5011467;28;20081;-85
2022/02/08 03:30:34;;;;;;;0.10;0.10;;;;;;;;;;5011292;28;20046;-85
2022/02/08 03:33:00;;;;;;;0.63;0.32;;;;;;;;;;4995004;28;20406;-85
2022/02/08 03:35:26;;;;;;;0.00;0.00;;;;;;;;;;4994974;28;20046;-85
2022/02/08 03:38:02;;;;;;;0.10;0.10;;;;;;;;;;4994971;28;20493;-86
2022/02/08 03:43:12;;;;;;;0.00;0.00;;;;;;;;;;4995870;28;20042;-85
2022/02/08 03:45:39;;;;;;;0.10;0.10;;;;;;;;;;5011173;28;20054;-86
2022/02/08 03:48:05;;;;;;;0.00;0.00;;;;;;;;;;4978680;28;20073;-86
2022/02/08 03:50:31;;;;;;;0.00;0.00;;;;;;;;;;5011306;28;20557;-86
2022/02/08 03:52:57;;;;;;;0.00;0.00;;;;;;;;;;4994723;28;20042;-85
2022/02/08 03:55:23;;;;;;;0.00;0.00;;;;;;;;;;5011087;28;20046;-85
2022/02/08 03:57:49;;;;;;;0.10;0.10;;;;;;;;;;4994475;28;20033;-86
2022/02/08 04:00:17;;;;;;;0.10;0.10;;;;;;;;;;4994509;28;20045;-85
2022/02/08 04:02:53;;;;;;;0.00;0.00;;;;;;;;;;4994200;28;20045;-86
2022/02/08 04:05:27;;;;;;;0.10;0.10;;;;;;;;;;4995580;28;20080;-86
2022/02/08 04:08:03;;;;;;;0.00;0.00;;;;;;;;;;5010780;28;20068;-86
2022/02/08 04:10:30;;;;;;;0.10;0.10;;;;;;;;;;5010986;28;20401;-86
2022/02/08 04:18:18;;;;;;;0.10;0.10;;;;;;;;;;4995643;28;20053;-86
2022/02/08 04:32:10;;;;;;;0.10;0.10;;;;;;;;;;4996860;28;20061;-85
2022/02/08 04:42:34;;;;;;;0.35;0.17;;;;;;;;;;4995555;28;20399;-85
2022/02/08 04:45:19;;;;;;;0.10;0.10;;;;;;;;;;4995608;28;20044;-86
2022/02/08 04:48:03;;;;;;;0.10;0.10;;;;;;;;;;5010416;28;20045;-85
2022/02/08 04:50:31;;;;;;;0.10;0.10;;;;;;;;;;5011832;28;20046;-85
2022/02/08 04:53:04;;;;;;;0.10;0.10;;;;;;;;;;4978119;28;20140;-85
2022/02/08 04:55:41;;;;;;;0.10;0.10;;;;;;;;;;5010462;28;20041;-86
2022/02/08 04:58:37;;;;;;;0.10;0.10;;;;;;;;;;5010326;28;20042;-86
2022/02/08 05:01:11;;;;;;;0.10;0.10;;;;;;;;;;4982247;28;20555;-86
2022/02/08 05:44:46;;;;;;;0.10;0.10;;;;;;;;;;5013577;28;20432;-85
2022/02/08 05:47:12;;;;;;;0.17;0.17;;;;;;;;;;4981263;28;20493;-87
2022/02/08 05:49:42;;;;;;;0.10;0.10;;;;;;;;;;5013745;28;20441;-85
2022/02/08 05:54:40;;;;;;;0.10;0.10;;;;;;;;;;4997864;28;20045;-85
2022/02/08 05:57:06;;;;;;;0.10;0.10;;;;;;;;;;5013411;28;20046;-85
2022/02/08 05:59:32;;;;;;;0.10;0.10;;;;;;;;;;5029619;28;20084;-85
2022/02/08 06:01:58;;;;;;;0.10;0.10;;;;;;;;;;5013206;28;20038;-85
2022/02/08 06:04:24;;;;;;;0.10;0.10;;;;;;;;;;5012942;28;20374;-85
2022/02/08 06:06:50;;;;;;;0.20;0.20;;;;;;;;;;5029530;28;20118;-86
2022/02/08 06:09:18;;;;;;;0.10;0.10;;;;;;;;;;4996667;28;20092;-85
2022/02/08 06:11:44;;;;;;;0.10;0.10;;;;;;;;;;4980546;28;20050;-85
2022/02/08 06:14:10;;;;;;;0.10;0.10;;;;;;;;;;5013020;28;20128;-85
2022/02/08 06:16:36;;;;;;;0.10;0.10;;;;;;;;;;5012893;28;20132;-84
2022/02/08 06:19:02;;;;;;;0.00;0.00;;;;;;;;;;4996666;28;20084;-84
2022/02/08 06:21:30;;;;;;;0.15;0.15;;;;;;;;;;4996694;28;20042;-84
2022/02/08 06:23:56;;;;;;;0.10;0.10;;;;;;;;;;5012409;28;20038;-84
2022/02/08 06:26:23;;;;;;;0.10;0.10;;;;;;;;;;5011670;28;20387;-85
2022/02/08 06:29:00;;;;;;;0.10;0.10;;;;;;;;;;5012558;28;20464;-85
2022/02/08 06:31:26;;;;;;;0.10;0.10;;;;;;;;;;5012446;28;20033;-85
2022/02/08 06:33:52;;;;;;;0.10;0.10;;;;;;;;;;5012473;28;20053;-85
2022/02/08 06:36:18;;;;;;;0.10;0.10;;;;;;;;;;5012544;28;20033;-85
2022/02/08 06:38:43;;;;;;;0.10;0.10;;;;;;;;;;4996213;28;20057;-85
2022/02/08 06:41:10;;;;;;;0.10;0.10;;;;;;;;;;4996258;28;20108;-86
2022/02/08 06:43:36;;;;;;;0.45;0.22;;;;;;;;;;4996071;28;20065;-84
2022/02/08 06:46:02;;;;;;;0.08;0.08;;;;;;;;;;4996025;28;20470;-85
2022/02/08 06:48:28;;;;;;;0.10;0.10;;;;;;;;;;4995745;28;20127;-84
2022/02/08 06:50:54;;;;;;;0.10;0.10;;;;;;;;;;5011971;28;20058;-84
2022/02/08 06:53:20;;;;;;;0.05;0.05;;;;;;;;;;5012175;28;20128;-84
2022/02/08 06:55:46;;;;;;;0.10;0.10;;;;;;;;;;5012037;28;20045;-88
2022/02/08 06:58:14;;;;;;;0.10;0.10;;;;;;;;;;5012155;28;20504;-84
2022/02/08 07:00:43;;;;;;;0.00;0.00;;;;;;;;;;4979954;28;20112;-84
2022/02/08 07:03:10;;;;;;;0.10;0.10;;;;;;;;;;5011793;28;20397;-85
2022/02/08 07:05:36;;;;;;;0.10;0.10;;;;;;;;;;4995577;28;20465;-85
2022/02/08 07:08:02;;;;;;;0.10;0.10;;;;;;;;;;4995941;28;20072;-87
2022/02/08 07:10:29;;;;;;;0.00;0.00;;;;;;;;;;5011821;28;20405;-85
2022/02/08 07:12:55;;;;;;;0.10;0.10;;;;;;;;;;5028215;28;20093;-84
2022/02/08 07:15:21;;;;;;;0.10;0.10;;;;;;;;;;4995631;28;20038;-86
2022/02/08 07:17:47;;;;;;;0.10;0.10;;;;;;;;;;5011765;28;20401;-83
2022/02/08 07:20:13;;;;;;;0.10;0.10;;;;;;;;;;5011744;28;20554;-83
2022/02/08 07:22:39;;;;;;;0.10;0.10;;;;;;;;;;5011669;28;20042;-84
2022/02/08 07:25:05;;;;;;;0.10;0.10;;;;;;;;;;4979184;28;20041;-84
2022/02/08 07:27:31;;;;;;;0.10;0.10;;;;;;;;;;5011546;28;20057;-84
2022/02/08 07:29:58;;;;;;;0.05;0.05;;;;;;;;;;4995007;28;20045;-85
2022/02/08 07:32:35;;;;;;;0.10;0.10;;;;;;;;;;4979112;28;20504;-86
2022/02/08 07:35:20;;;;;;;0.10;0.10;;;;;;;;;;4996787;28;20054;-86
2022/02/08 07:43:30;;;;;;;0.10;0.10;;;;;;;;;;4967917;28;20478;-84
2022/02/08 07:45:56;;;;;;;0.08;0.08;;;;;;;;;;5011038;28;20038;-84
2022/02/08 07:48:23;;;;;;;0.10;0.10;;;;;;;;;;5011308;28;20501;-89
2022/02/08 07:50:51;;;;;;;0.17;0.10;;;;;;;;;;4995011;28;20049;-86
2022/02/08 07:53:18;;;;;;;0.10;0.10;;;;;;;;;;5010841;28;20045;-84
2022/02/08 07:55:44;;;;;;;0.10;0.10;;;;;;;;;;5011381;28;20397;-84
2022/02/08 07:58:10;;;;;;;0.25;0.10;;;;;;;;;;4994696;28;20125;-84
2022/02/08 08:00:36;;;;;;;0.10;0.10;;;;;;;;;;4994635;28;20492;-84
2022/02/08 08:03:02;;;;;;;0.10;0.10;;;;;;;;;;4994480;28;20061;-84
2022/02/08 08:05:28;;;;;;;0.10;0.10;;;;;;;;;;5010810;28;20068;-84
2022/02/08 08:07:54;;;;;;;0.10;0.10;;;;;;;;;;4994479;28;20042;-84
2022/02/08 08:10:22;;;;;;;0.10;0.10;;;;;;;;;;5010795;28;20053;-84
2022/02/08 08:12:53;;;;;;;0.10;0.10;;;;;;;;;;5010639;28;20415;-84
2022/02/08 08:20:41;;;;;;;0.00;0.00;;;;;;;;;;5012033;28;20041;-84
2022/02/08 08:23:07;;;;;;;0.10;0.10;;;;;;;;;;5010491;28;20172;-84
2022/02/08 08:25:33;;;;;;;0.10;0.10;;;;;;;;;;5010579;28;20084;-84
2022/02/08 08:27:59;;;;;;;0.10;0.10;;;;;;;;;;4994285;28;20061;-85
2022/02/08 08:30:25;;;;;;;0.10;0.10;;;;;;;;;;5010625;28;20069;-84
2022/02/08 08:32:51;;;;;;;0.93;0.30;;;;;;;;;;5027076;28;20123;-84
2022/02/08 08:35:20;;;;;;;0.10;0.10;;;;;;;;;;4994269;28;20038;-84
2022/02/08 08:37:48;;;;;;;0.10;0.10;;;;;;;;;;4994684;28;20474;-84
2022/02/08 08:40:27;;;;;;;0.10;0.10;;;;;;;;;;5026994;28;20461;-84
2022/02/08 08:43:27;;;;;;;0.10;0.10;;;;;;;;;;5010306;28;20100;-84
2022/02/08 08:49:29;;;;;;;0.00;0.00;;;;;;;;;;5012220;28;20054;-85
2022/02/08 08:53:44;;;;;;;0.05;0.05;;;;;;;;;;5014276;28;20060;-84
2022/02/08 08:56:10;;;;;;;0.10;0.10;;;;;;;;;;5015529;28;20153;-84
2022/02/08 08:58:38;;;;;;;0.10;0.10;;;;;;;;;;4997922;28;20256;-84
2022/02/08 09:01:04;;;;;;;0.10;0.10;;;;;;;;;;5014109;28;20042;-84
2022/02/08 09:03:30;;;;;;;0.10;0.10;;;;;;;;;;5013924;28;20060;-84
2022/02/08 09:05:56;;;;;;;0.10;0.10;;;;;;;;;;5014109;28;20061;-84
2022/02/08 09:08:28;;;;;;;0.10;0.10;;;;;;;;;;5013935;28;20068;-84
2022/02/08 09:11:02;;;;;;;0.10;0.10;;;;;;;;;;5014042;28;20054;-84
2022/02/08 09:19:50;;;;;;;0.73;0.73;;;;;;;;;;4973983;28;20094;-84
2022/02/08 09:28:02;;;;;;;0.10;0.10;;;;;;;;;;4962411;28;20042;-84
2022/02/08 09:30:42;;;;;;;0.10;0.10;;;;;;;;;;5013987;28;20403;-84
2022/02/08 09:33:09;;;;;;;0.10;0.10;;;;;;;;;;5013689;28;20397;-84
2022/02/08 09:35:35;;;;;;;0.10;0.10;;;;;;;;;;4981497;28;20374;-84
2022/02/08 09:38:01;;;;;;;0.17;0.17;;;;;;;;;;4997222;28;20140;-84
2022/02/08 09:40:27;;;;;;;0.10;0.10;;;;;;;;;;4997142;28;20509;-84
2022/02/08 09:42:54;;;;;;;0.10;0.10;;;;;;;;;;5013276;28;20046;-84
2022/02/08 09:45:21;;;;;;;0.10;0.10;;;;;;;;;;4997560;28;20042;-84
2022/02/08 09:48:01;;;;;;;0.10;0.10;;;;;;;;;;4997254;28;20056;-84
2022/02/08 09:50:30;;;;;;;0.10;0.10;;;;;;;;;;5013219;28;20100;-84
2022/02/08 09:52:59;;;;;;;0.10;0.10;;;;;;;;;;4997231;28;20179;-85
2022/02/08 09:55:26;;;;;;;0.10;0.10;;;;;;;;;;5013376;28;20070;-85
2022/02/08 09:57:52;;;;;;;0.10;0.10;;;;;;;;;;5013179;28;20042;-84
2022/02/08 10:00:19;;;;;;;0.10;0.10;;;;;;;;;;5013188;28;20079;-84
2022/02/08 10:02:45;;;;;;;0.10;0.10;;;;;;;;;;4995472;28;20124;-85
2022/02/08 10:05:13;;;;;;;0.10;0.10;;;;;;;;;;4996719;28;20512;-85
2022/02/08 10:07:39;;;;;;;0.10;0.10;;;;;;;;;;5012883;28;20168;-84
2022/02/08 10:10:06;;;;;;;0.10;0.10;;;;;;;;;;5013007;28;20418;-84
2022/02/08 10:12:48;;;;;;;0.10;0.10;;;;;;;;;;5012849;28;20128;-83
2022/02/08 10:23:27;;;;;;;0.10;0.10;;;;;;;;;;5012872;28;20038;-84
2022/02/08 10:26:03;;;;;;;0.10;0.10;;;;;;;;;;5012903;28;20049;-84
2022/02/08 10:29:02;;;;;;;0.10;0.10;;;;;;;;;;5012735;28;20042;-85
2022/02/08 10:31:58;;;;;;;0.10;0.10;;;;;;;;;;5012502;28;20048;-85
2022/02/08 10:40:08;;;;;;;0.10;0.10;;;;;;;;;;5012761;28;20042;-84
2022/02/08 10:42:34;;;;;;;0.10;0.10;;;;;;;;;;5012279;28;20041;-84
2022/02/08 10:45:00;;;;;;;0.10;0.10;;;;;;;;;;4995933;28;20118;-83
2022/02/08 10:47:39;;;;;;;0.10;0.10;;;;;;;;;;4995959;28;20049;-82
2022/02/08 10:50:06;;;;;;;0.10;0.10;;;;;;;;;;5012181;28;20073;-82
2022/02/08 10:52:32;;;;;;;0.10;0.10;;;;;;;;;;5011709;28;20132;-83
2022/02/08 10:55:08;;;;;;;0.10;0.10;;;;;;;;;;5012197;28;20041;-83
2022/02/08 10:57:45;;;;;;;0.10;0.10;;;;;;;;;;5012300;28;20452;-84
2022/02/08 11:00:12;;;;;;;0.10;0.10;;;;;;;;;;4996962;28;20050;-84
2022/02/08 11:02:46;;;;;;;0.10;0.10;;;;;;;;;;5011720;28;20120;-83
2022/02/08 11:05:40;;;;;;;0.10;0.10;;;;;;;;;;5011962;28;20038;-85
2022/02/08 11:08:28;;;;;;;0.10;0.10;;;;;;;;;;4999635;28;20124;-83
2022/02/08 11:11:13;;;;;;;0.10;0.10;;;;;;;;;;5028076;28;20049;-83
2022/02/08 11:13:59;;;;;;;0.10;0.10;;;;;;;;;;5011164;28;20052;-84
2022/02/08 11:16:46;;;;;;;0.10;0.10;;;;;;;;;;5011723;28;20120;-84
2022/02/08 11:19:26;;;;;;;0.10;0.10;;;;;;;;;;5011686;28;20255;-84
2022/02/08 11:22:07;;;;;;;0.10;0.10;;;;;;;;;;4980990;28;20042;-84
2022/02/08 11:24:41;;;;;;;0.10;0.10;;;;;;;;;;4997630;28;20048;-84
2022/02/08 11:27:13;;;;;;;0.10;0.10;;;;;;;;;;4980093;28;20050;-84
2022/02/08 11:29:49;;;;;;;0.10;0.10;;;;;;;;;;5011706;28;20064;-84
2022/02/08 11:41:52;;;;;;;0.10;0.10;;;;;;;;;;4997678;28;20037;-83
2022/02/08 11:43:42;;;;;;;0.10;0.10;;;;;;;;;;5011280;28;20117;-84
2022/02/08 11:46:30;;;;;;;0.10;0.10;;;;;;;;;;5027942;28;20065;-85
2022/02/08 11:49:29;;;;;;;0.10;0.10;;;;;;;;;;5011372;28;20480;-83
2022/02/08 11:52:19;;;;;;;0.10;0.10;;;;;;;;;;5010969;28;20046;-84
2022/02/08 12:07:24;;;;;;;0.73;0.73;;;;;;;;;;5010931;28;20046;-84
2022/02/08 12:10:05;;;;;;;1.35;0.20;;;;;;;;;;5010947;28;20038;-84
2022/02/08 12:32:59;;;;;;;0.10;0.10;;;;;;;;;;4943814;28;20050;-88
2022/02/08 12:35:36;;;;;;;0.10;0.10;;;;;;;;;;4955268;28;20588;-88
2022/02/08 12:52:56;;;;;;;0.20;0.20;;;;;;;;;;4997071;28;20413;-84
2022/02/08 12:57:50;;;;;;;0.10;0.10;;;;;;;;;;4995776;28;20136;-85
2022/02/08 13:00:37;;;;;;;0.10;0.10;;;;;;;;;;5010706;28;20422;-89
2022/02/08 13:03:25;;;;;;;0.10;0.10;;;;;;;;;;4996954;28;20065;-85
2022/02/08 13:06:17;;;;;;;0.10;0.10;;;;;;;;;;5010493;28;20116;-85
2022/02/08 13:20:02;;;;;;;0.10;0.10;;;;;;;;;;4996693;28;20076;-85
2022/02/08 14:06:20;;;;;;;0.10;0.10;;;;;;;;;;5013250;28;20046;-85
2022/02/08 14:09:12;;;;;;;0.10;0.10;;;;;;;;;;4982156;28;20104;-85
2022/02/08 14:14:18;;;;;;;0.10;0.10;;;;;;;;;;4996913;28;20525;-86
2022/02/08 14:17:24;;;;;;;0.10;0.10;;;;;;;;;;5013148;28;20437;-85
2022/02/08 14:19:40;;;;;;;0.10;0.10;;;;;;;;;;5013328;28;20367;-86
2022/02/08 14:22:32;;;;;;;0.10;0.10;;;;;;;;;;5013069;28;20069;-87
2022/02/08 14:25:23;;;;;;;0.10;0.10;;;;;;;;;;5012961;28;20092;-88
2022/02/08 14:30:45;;;;;;;0.15;0.15;;;;;;;;;;5012822;28;20038;-85
2022/02/08 14:49:26;;;;;;;0.10;0.10;;;;;;;;;;5012028;28;20042;-87
2022/02/08 15:00:22;;;;;;;0.10;0.10;;;;;;;;;;4980419;28;20037;-88
2022/02/08 15:08:12;;;;;;;0.10;0.10;;;;;;;;;;4995965;28;20103;-89
2022/02/08 15:11:04;;;;;;;0.10;0.10;;;;;;;;;;5011778;28;20069;-87
2022/02/08 15:13:27;;;;;;;0.10;0.10;;;;;;;;;;4998172;28;20045;-91
2022/02/08 15:18:28;;;;;;;0.10;0.10;;;;;;;;;;4996192;28;20546;-88
2022/02/08 15:20:54;;;;;;;0.10;0.10;;;;;;;;;;4979781;28;20065;-88
2022/02/08 15:23:21;;;;;;;0.10;0.10;;;;;;;;;;4995779;28;20440;-88
2022/02/08 15:25:49;;;;;;;0.10;0.10;;;;;;;;;;4995806;28;20453;-88
2022/02/08 15:28:15;;;;;;;0.10;0.10;;;;;;;;;;4995305;28;20045;-88
2022/02/08 15:30:42;;;;;;;0.10;0.10;;;;;;;;;;4978844;28;20096;-88
2022/02/08 15:33:10;;;;;;;0.10;0.10;;;;;;;;;;5012529;28;20121;-88
2022/02/08 15:35:36;;;;;;;0.10;0.10;;;;;;;;;;4995436;28;20045;-89
2022/02/08 15:38:05;;;;;;;0.10;0.10;;;;;;;;;;5011328;28;20180;-88
2022/02/08 15:40:31;;;;;;;0.10;0.10;;;;;;;;;;5011128;28;20054;-87
2022/02/08 15:42:57;;;;;;;0.10;0.10;;;;;;;;;;4995046;28;20104;-87
2022/02/08 15:48:12;;;;;;;0.10;0.10;;;;;;;;;;4997253;28;20042;-89
2022/02/08 16:09:34;;;;;;;0.10;0.10;;;;;;;;;;4996971;28;20433;-88
2022/02/08 16:25:40;;;;;;;0.10;0.10;;;;;;;;;;4994583;28;20038;-89
2022/02/08 16:28:24;;;;;;;0.10;0.10;;;;;;;;;;5010667;28;20124;-86
2022/02/08 16:31:22;;;;;;;0.10;0.10;;;;;;;;;;4980497;28;20041;-86
2022/02/08 16:55:24;;;;;;;0.10;0.10;;;;;;;;;;5003494;28;20490;-88
2022/02/08 16:58:39;;;;;;;0.10;0.10;;;;;;;;;;4991835;28;20074;-87
2022/02/08 17:00:44;;;;;;;0.10;0.10;;;;;;;;;;5021771;28;20358;-87
2022/02/08 17:03:10;;;;;;;0.10;0.10;;;;;;;;;;4993240;28;20137;-87
2022/02/08 17:05:36;;;;;;;0.10;0.10;;;;;;;;;;5008886;28;20042;-84
2022/02/08 17:08:02;;;;;;;0.10;0.10;;;;;;;;;;5010716;28;20056;-85
2022/02/08 17:10:38;;;;;;;0.10;0.10;;;;;;;;;;5013075;28;20076;-87
2022/02/08 17:13:15;;;;;;;0.10;0.10;;;;;;;;;;4997487;28;20109;-86
2022/02/08 17:15:54;;;;;;;0.10;0.10;;;;;;;;;;5018392;28;20152;-86
2022/02/08 17:35:29;;;;;;;0.10;0.10;;;;;;;;;;5031553;28;20046;-86
2022/02/08 17:46:01;;;;;;;0.10;0.10;;;;;;;;;;5017178;28;20402;-87
2022/02/08 17:48:30;;;;;;;0.10;0.10;;;;;;;;;;4998174;28;20106;-85
2022/02/08 17:50:56;;;;;;;0.10;0.10;;;;;;;;;;5027783;28;20587;-85
2022/02/08 17:53:23;;;;;;;0.10;0.10;;;;;;;;;;4995224;28;20053;-85
2022/02/08 17:55:49;;;;;;;0.10;0.10;;;;;;;;;;4993501;28;20501;-86
2022/02/08 17:58:15;;;;;;;0.10;0.10;;;;;;;;;;4984008;28;20041;-85
2022/02/08 18:00:41;;;;;;;0.10;0.10;;;;;;;;;;5028123;28;20117;-84
2022/02/08 18:03:12;;;;;;;0.10;0.10;;;;;;;;;;5028826;28;20057;-85
2022/02/08 18:05:38;;;;;;;0.10;0.10;;;;;;;;;;4995411;28;20038;-85
2022/02/08 18:08:06;;;;;;;0.10;0.10;;;;;;;;;;5029467;28;20046;-87
2022/02/08 18:10:32;;;;;;;0.10;0.10;;;;;;;;;;5000056;28;20053;-85
2022/02/08 18:13:01;;;;;;;0.10;0.10;;;;;;;;;;5030883;28;20497;-85
2022/02/08 18:15:27;;;;;;;0.10;0.10;;;;;;;;;;5001138;28;20042;-88
2022/02/08 18:17:58;;;;;;;0.10;0.10;;;;;;;;;;5002125;28;20053;-90
2022/02/08 18:20:35;;;;;;;0.10;0.10;;;;;;;;;;5019666;28;20030;-91
2022/02/08 18:25:50;;;;;;;0.10;0.10;;;;;;;;;;5006557;28;20127;-89
2022/02/08 18:56:12;;;;;;;0.10;0.10;;;;;;;;;;5019643;28;20048;-90
2022/02/08 19:09:51;;;;;;;0.10;0.10;;;;;;;;;;5024890;28;20046;-91
2022/02/08 19:12:31;;;;;;;0.10;0.10;;;;;;;;;;5003194;28;20042;-91
2022/02/08 19:15:11;;;;;;;0.10;0.10;;;;;;;;;;5033550;28;20094;-90
2022/02/08 19:20:16;;;;;;;0.10;0.10;;;;;;;;;;5017457;28;20048;-89
2022/02/08 19:22:42;;;;;;;0.10;0.10;;;;;;;;;;5002821;28;20182;-89
2022/02/08 19:25:08;;;;;;;0.10;0.10;;;;;;;;;;5018559;28;20049;-90
2022/02/08 19:27:36;;;;;;;0.10;0.10;;;;;;;;;;5018846;28;20045;-88
2022/02/08 19:30:02;;;;;;;0.10;0.10;;;;;;;;;;5035104;28;20122;-88
2022/02/08 19:32:28;;;;;;;0.10;0.10;;;;;;;;;;5001821;28;20037;-89
2022/02/08 19:34:55;;;;;;;0.10;0.10;;;;;;;;;;5018316;28;20041;-89
2022/02/08 19:37:22;;;;;;;0.10;0.10;;;;;;;;;;4998425;28;20038;-91
2022/02/08 19:39:48;;;;;;;0.10;0.10;;;;;;;;;;4998170;28;20055;-89
2022/02/08 19:42:16;;;;;;;0.10;0.10;;;;;;;;;;5017260;28;20049;-88
2022/02/08 19:44:42;;;;;;;0.95;0.95;;;;;;;;;;5001658;28;20037;-90
2022/02/08 19:47:08;;;;;;;0.10;0.10;;;;;;;;;;5000354;28;20029;-90
2022/02/08 19:49:34;;;;;;;0.10;0.10;;;;;;;;;;4998032;28;20022;-86
2022/02/08 19:52:00;;;;;;;0.10;0.10;;;;;;;;;;5017766;28;20488;-87
2022/02/08 19:54:29;;;;;;;0.10;0.10;;;;;;;;;;5034038;28;20034;-88
2022/02/08 19:57:03;;;;;;;0.10;0.10;;;;;;;;;;5018327;28;20045;-88
2022/02/08 19:59:37;;;;;;;1.27;0.30;;;;;;;;;;5019148;28;20106;-88
2022/02/08 20:02:18;;;;;;;0.20;0.20;;;;;;;;;;5019617;28;20033;-86
2022/02/08 20:04:47;;;;;;;0.10;0.10;;;;;;;;;;5000231;28;20111;-89
2022/02/08 20:07:13;;;;;;;0.32;0.25;;;;;;;;;;5002143;28;20037;-89
2022/02/08 20:09:39;;;;;;;0.10;0.10;;;;;;;;;;5018100;28;20049;-89
2022/02/08 20:12:05;;;;;;;0.10;0.10;;;;;;;;;;5018083;28;20065;-89
2022/02/08 20:14:31;;;;;;;0.10;0.10;;;;;;;;;;5034278;28;20110;-89
2022/02/08 20:16:57;;;;;;;0.10;0.10;;;;;;;;;;5034070;28;20095;-90
2022/02/08 20:19:24;;;;;;;0.10;0.10;;;;;;;;;;5033752;28;20046;-89
2022/02/08 20:21:57;;;;;;;0.30;0.30;;;;;;;;;;5001323;28;20030;-89
2022/02/08 20:24:23;;;;;;;0.20;0.20;;;;;;;;;;5001555;28;20033;-89
2022/02/08 20:29:31;;;;;;;0.10;0.10;;;;;;;;;;5018728;28;20048;-90
2022/02/08 20:31:58;;;;;;;0.10;0.10;;;;;;;;;;5001685;28;20042;-89
2022/02/08 20:34:27;;;;;;;0.10;0.10;;;;;;;;;;5016498;28;20049;-90
2022/02/08 20:36:55;;;;;;;0.10;0.10;;;;;;;;;;5001234;28;20041;-89
2022/02/08 20:39:21;;;;;;;0.10;0.10;;;;;;;;;;5008747;28;20124;-89
2022/02/08 20:41:47;;;;;;;0.10;0.10;;;;;;;;;;4994746;28;20080;-88
2022/02/08 20:44:15;;;;;;;0.10;0.10;;;;;;;;;;4994273;28;20042;-87
2022/02/08 20:46:49;;;;;;;0.10;0.10;;;;;;;;;;4980778;28;20129;-85
2022/02/08 20:49:15;;;;;;;0.10;0.10;;;;;;;;;;5014936;28;20034;-84
2022/02/08 20:51:43;;;;;;;0.10;0.10;;;;;;;;;;5015354;28;20518;-85
2022/02/08 20:54:09;;;;;;;0.10;0.10;;;;;;;;;;5014650;28;20038;-86
2022/02/08 20:56:37;;;;;;;0.32;0.20;;;;;;;;;;4981643;28;20133;-84
2022/02/08 20:59:09;;;;;;;0.10;0.10;;;;;;;;;;5014249;28;20212;-88
2022/02/08 21:01:39;;;;;;;0.10;0.10;;;;;;;;;;4998492;28;20513;-88
2022/02/08 21:06:50;;;;;;;0.10;0.10;;;;;;;;;;5000672;28;20405;-89
2022/02/08 21:09:20;;;;;;;0.10;0.10;;;;;;;;;;5014088;28;20042;-88
2022/02/08 21:11:53;;;;;;;0.10;0.10;;;;;;;;;;4999336;28;20037;-89
2022/02/08 21:14:19;;;;;;;0.10;0.10;;;;;;;;;;4983067;28;20053;-92
2022/02/08 21:16:54;;;;;;;0.10;0.10;;;;;;;;;;4982404;28;20144;-92
2022/02/08 21:19:21;;;;;;;0.10;0.10;;;;;;;;;;4982017;28;20447;-90
2022/02/08 21:21:48;;;;;;;0.10;0.10;;;;;;;;;;4981499;28;20037;-90
2022/02/08 21:24:14;;;;;;;0.10;0.10;;;;;;;;;;4998013;28;20049;-90
2022/02/08 21:26:49;;;;;;;0.10;0.10;;;;;;;;;;4998009;28;20037;-90
2022/02/08 21:29:27;;;;;;;0.10;0.10;;;;;;;;;;4999270;28;20042;-90
2022/02/08 21:48:13;;;;;;;0.10;0.10;;;;;;;;;;5000226;28;20046;-90
2022/02/08 21:53:30;;;;;;;0.35;0.10;;;;;;;;;;4970824;28;20085;-91
2022/02/08 21:56:01;;;;;;;0.35;0.20;;;;;;;;;;4998138;28;20053;-89
2022/02/08 21:58:27;;;;;;;0.17;0.17;;;;;;;;;;4981220;28;20049;-90
2022/02/08 22:00:56;;;;;;;0.10;0.10;;;;;;;;;;4997329;28;20524;-89
2022/02/08 22:03:22;;;;;;;0.10;0.10;;;;;;;;;;4981086;28;20137;-89
2022/02/08 22:05:48;;;;;;;0.10;0.10;;;;;;;;;;4980791;28;20054;-89
2022/02/08 22:08:22;;;;;;;0.10;0.10;;;;;;;;;;4996999;28;20042;-90
2022/02/08 22:18:56;;;;;;;0.10;0.10;;;;;;;;;;4999646;28;20507;-89
2022/02/08 22:23:54;;;;;;;0.10;0.10;;;;;;;;;;4996607;28;20042;-89
2022/02/08 22:29:22;;;;;;;0.10;0.10;;;;;;;;;;4999470;28;20405;-89
2022/02/08 22:31:52;;;;;;;0.10;0.10;;;;;;;;;;4998691;28;20053;-90
2022/02/08 22:34:25;;;;;;;0.10;0.10;;;;;;;;;;4981172;28;20124;-88
2022/02/08 22:37:06;;;;;;;0.10;0.10;;;;;;;;;;4997402;28;20486;-91
2022/02/08 22:39:39;;;;;;;0.10;0.10;;;;;;;;;;4982705;28;20049;-91